sensor_id;sensor_type;location;lat;lon;timestamp;temperature;humidity
16200;DHT22;8207;52.494;4.654;2022-08-19T00:01:58;17.90;99.90
16200;DHT22;8207;52.494;4.654;2022-08-19T00:04:29;17.90;99.90
16200;DHT22;8207;52.494;4.654;2022-08-19T00:06:56;17.90;99.90
16200;DHT22;8207;52.494;4.654;2022-08-19T00:09:23;17.90;99.90
16200;DHT22;8207;52.494;4.654;2022-08-19T00:11:50;17.90;99.90
16200;DHT22;8207;52.494;4.654;2022-08-19T00:14:19;17.90;99.90
16200;DHT22;8207;52.494;4.654;2022-08-19T00:16:48;17.90;99.90
16200;DHT22;8207;52.494;4.654;2022-08-19T00:19:16;17.90;99.90
16200;DHT22;8207;52.494;4.654;2022-08-19T00:21:44;17.90;99.90
16200;DHT22;8207;52.494;4.654;2022-08-19T00:24:13;17.90;99.90
16200;DHT22;8207;52.494;4.654;2022-08-19T00:26:41;17.90;99.90
16200;DHT22;8207;52.494;4.654;2022-08-19T00:29:10;17.80;99.90
16200;DHT22;8207;52.494;4.654;2022-08-19T00:31:39;17.80;99.90
16200;DHT22;8207;52.494;4.654;2022-08-19T00:34:06;17.80;99.90
16200;DHT22;8207;52.494;4.654;2022-08-19T00:36:33;17.80;99.90
16200;DHT22;8207;52.494;4.654;2022-08-19T00:39:00;17.70;99.90
16200;DHT22;8207;52.494;4.654;2022-08-19T00:41:28;17.70;99.90
16200;DHT22;8207;52.494;4.654;2022-08-19T00:44:06;17.70;99.90
16200;DHT22;8207;52.494;4.654;2022-08-19T00:46:35;17.60;99.90
16200;DHT22;8207;52.494;4.654;2022-08-19T00:49:09;17.60;99.90
16200;DHT22;8207;52.494;4.654;2022-08-19T00:51:37;17.60;99.90
16200;DHT22;8207;52.494;4.654;2022-08-19T00:54:04;17.60;99.90
16200;DHT22;8207;52.494;4.654;2022-08-19T00:56:31;17.60;99.90
16200;DHT22;8207;52.494;4.654;2022-08-19T00:58:59;17.60;99.90
16200;DHT22;8207;52.494;4.654;2022-08-19T01:01:27;17.60;99.90
16200;DHT22;8207;52.494;4.654;2022-08-19T01:03:54;17.50;99.90
16200;DHT22;8207;52.494;4.654;2022-08-19T01:06:22;17.50;99.90
16200;DHT22;8207;52.494;4.654;2022-08-19T01:08:49;17.50;99.90
16200;DHT22;8207;52.494;4.654;2022-08-19T01:11:16;17.50;99.90
16200;DHT22;8207;52.494;4.654;2022-08-19T01:13:44;17.50;99.90
16200;DHT22;8207;52.494;4.654;2022-08-19T01:16:12;17.40;99.90
16200;DHT22;8207;52.494;4.654;2022-08-19T01:18:41;17.40;99.90
16200;DHT22;8207;52.494;4.654;2022-08-19T01:21:12;17.40;99.90
16200;DHT22;8207;52.494;4.654;2022-08-19T01:23:45;17.40;99.90
16200;DHT22;8207;52.494;4.654;2022-08-19T01:26:15;17.40;99.90
16200;DHT22;8207;52.494;4.654;2022-08-19T01:28:43;17.40;99.90
16200;DHT22;8207;52.494;4.654;2022-08-19T01:31:13;17.40;99.90
16200;DHT22;8207;52.494;4.654;2022-08-19T01:33:40;17.50;99.90
16200;DHT22;8207;52.494;4.654;2022-08-19T01:36:09;17.50;99.90
16200;DHT22;8207;52.494;4.654;2022-08-19T01:38:39;17.50;99.90
16200;DHT22;8207;52.494;4.654;2022-08-19T01:41:08;17.50;99.90
16200;DHT22;8207;52.494;4.654;2022-08-19T01:43:36;17.50;99.90
16200;DHT22;8207;52.494;4.654;2022-08-19T01:46:04;17.50;99.90
16200;DHT22;8207;52.494;4.654;2022-08-19T01:48:34;17.50;99.90
16200;DHT22;8207;52.494;4.654;2022-08-19T01:51:01;17.50;99.90
16200;DHT22;8207;52.494;4.654;2022-08-19T01:53:28;17.50;99.90
16200;DHT22;8207;52.494;4.654;2022-08-19T01:55:55;17.50;99.90
16200;DHT22;8207;52.494;4.654;2022-08-19T01:58:27;17.50;99.90
16200;DHT22;8207;52.494;4.654;2022-08-19T02:00:56;17.50;99.90
16200;DHT22;8207;52.494;4.654;2022-08-19T02:03:23;17.50;99.90
16200;DHT22;8207;52.494;4.654;2022-08-19T02:05:54;17.50;99.90
16200;DHT22;8207;52.494;4.654;2022-08-19T02:08:21;17.50;99.90
16200;DHT22;8207;52.494;4.654;2022-08-19T02:10:48;17.50;99.90
16200;DHT22;8207;52.494;4.654;2022-08-19T02:13:16;17.50;99.90
16200;DHT22;8207;52.494;4.654;2022-08-19T02:15:44;17.50;99.90
16200;DHT22;8207;52.494;4.654;2022-08-19T02:18:12;17.50;99.90
16200;DHT22;8207;52.494;4.654;2022-08-19T02:20:40;17.50;99.90
16200;DHT22;8207;52.494;4.654;2022-08-19T02:23:09;17.40;99.90
16200;DHT22;8207;52.494;4.654;2022-08-19T02:25:36;17.50;99.90
16200;DHT22;8207;52.494;4.654;2022-08-19T02:28:04;17.50;99.90
16200;DHT22;8207;52.494;4.654;2022-08-19T02:30:30;17.40;99.90
16200;DHT22;8207;52.494;4.654;2022-08-19T02:32:59;17.50;99.90
16200;DHT22;8207;52.494;4.654;2022-08-19T02:35:26;17.40;99.90
16200;DHT22;8207;52.494;4.654;2022-08-19T02:37:53;17.40;99.90
16200;DHT22;8207;52.494;4.654;2022-08-19T02:40:37;17.50;99.90
16200;DHT22;8207;52.494;4.654;2022-08-19T02:43:06;17.50;99.90
16200;DHT22;8207;52.494;4.654;2022-08-19T02:45:34;17.40;99.90
16200;DHT22;8207;52.494;4.654;2022-08-19T02:48:03;17.50;99.90
16200;DHT22;8207;52.494;4.654;2022-08-19T02:50:30;17.50;99.90
16200;DHT22;8207;52.494;4.654;2022-08-19T02:52:58;17.50;99.90
16200;DHT22;8207;52.494;4.654;2022-08-19T02:55:24;17.40;99.90
16200;DHT22;8207;52.494;4.654;2022-08-19T02:57:51;17.40;99.90
16200;DHT22;8207;52.494;4.654;2022-08-19T03:00:18;17.40;99.90
16200;DHT22;8207;52.494;4.654;2022-08-19T03:02:49;17.40;99.90
16200;DHT22;8207;52.494;4.654;2022-08-19T03:05:17;17.40;99.90
16200;DHT22;8207;52.494;4.654;2022-08-19T03:07:44;17.40;99.90
16200;DHT22;8207;52.494;4.654;2022-08-19T03:10:12;17.40;99.90
16200;DHT22;8207;52.494;4.654;2022-08-19T03:12:39;17.40;99.90
16200;DHT22;8207;52.494;4.654;2022-08-19T03:15:08;17.30;99.90
16200;DHT22;8207;52.494;4.654;2022-08-19T03:17:35;17.40;99.90
16200;DHT22;8207;52.494;4.654;2022-08-19T03:20:03;17.40;99.90
16200;DHT22;8207;52.494;4.654;2022-08-19T03:22:32;17.40;99.90
16200;DHT22;8207;52.494;4.654;2022-08-19T03:24:59;17.30;99.90
16200;DHT22;8207;52.494;4.654;2022-08-19T03:27:26;17.30;99.90
16200;DHT22;8207;52.494;4.654;2022-08-19T03:29:52;17.30;99.90
16200;DHT22;8207;52.494;4.654;2022-08-19T03:32:19;17.30;99.90
16200;DHT22;8207;52.494;4.654;2022-08-19T03:34:47;17.30;99.90
16200;DHT22;8207;52.494;4.654;2022-08-19T03:37:14;17.30;99.90
16200;DHT22;8207;52.494;4.654;2022-08-19T03:39:43;17.30;99.90
16200;DHT22;8207;52.494;4.654;2022-08-19T03:42:10;17.30;99.90
16200;DHT22;8207;52.494;4.654;2022-08-19T03:44:37;17.30;99.90
16200;DHT22;8207;52.494;4.654;2022-08-19T03:47:05;17.30;99.90
16200;DHT22;8207;52.494;4.654;2022-08-19T03:49:33;17.30;99.90
16200;DHT22;8207;52.494;4.654;2022-08-19T03:52:01;17.30;99.90
16200;DHT22;8207;52.494;4.654;2022-08-19T03:54:30;17.30;99.90
16200;DHT22;8207;52.494;4.654;2022-08-19T03:56:58;17.30;99.90
16200;DHT22;8207;52.494;4.654;2022-08-19T03:59:27;17.30;99.90
16200;DHT22;8207;52.494;4.654;2022-08-19T04:01:57;17.20;99.90
16200;DHT22;8207;52.494;4.654;2022-08-19T04:04:24;17.20;99.90
16200;DHT22;8207;52.494;4.654;2022-08-19T04:06:52;17.30;99.90
16200;DHT22;8207;52.494;4.654;2022-08-19T04:09:19;17.30;99.90
16200;DHT22;8207;52.494;4.654;2022-08-19T04:11:49;17.30;99.90
16200;DHT22;8207;52.494;4.654;2022-08-19T04:14:21;17.30;99.90
16200;DHT22;8207;52.494;4.654;2022-08-19T04:16:48;17.30;99.90
16200;DHT22;8207;52.494;4.654;2022-08-19T04:19:16;17.30;99.90
16200;DHT22;8207;52.494;4.654;2022-08-19T04:21:46;17.30;99.90
16200;DHT22;8207;52.494;4.654;2022-08-19T04:24:14;17.30;99.90
16200;DHT22;8207;52.494;4.654;2022-08-19T04:26:41;17.20;99.90
16200;DHT22;8207;52.494;4.654;2022-08-19T04:29:09;17.30;99.90
16200;DHT22;8207;52.494;4.654;2022-08-19T04:31:39;17.30;99.90
16200;DHT22;8207;52.494;4.654;2022-08-19T04:34:09;17.20;99.90
16200;DHT22;8207;52.494;4.654;2022-08-19T04:36:38;17.30;99.90
16200;DHT22;8207;52.494;4.654;2022-08-19T04:39:08;17.40;99.90
16200;DHT22;8207;52.494;4.654;2022-08-19T04:41:36;17.40;99.90
16200;DHT22;8207;52.494;4.654;2022-08-19T04:44:20;17.40;99.90
16200;DHT22;8207;52.494;4.654;2022-08-19T04:46:49;17.40;99.90
16200;DHT22;8207;52.494;4.654;2022-08-19T04:49:18;17.40;99.90
16200;DHT22;8207;52.494;4.654;2022-08-19T04:51:46;17.50;99.90
16200;DHT22;8207;52.494;4.654;2022-08-19T04:54:15;17.50;99.90
16200;DHT22;8207;52.494;4.654;2022-08-19T04:56:42;17.60;99.90
16200;DHT22;8207;52.494;4.654;2022-08-19T04:59:09;17.60;99.90
16200;DHT22;8207;52.494;4.654;2022-08-19T05:01:37;17.70;99.90
16200;DHT22;8207;52.494;4.654;2022-08-19T05:04:06;17.70;99.90
16200;DHT22;8207;52.494;4.654;2022-08-19T05:06:33;17.80;99.90
16200;DHT22;8207;52.494;4.654;2022-08-19T05:09:01;17.80;99.90
16200;DHT22;8207;52.494;4.654;2022-08-19T05:11:31;17.90;99.90
16200;DHT22;8207;52.494;4.654;2022-08-19T05:13:58;18.00;99.90
16200;DHT22;8207;52.494;4.654;2022-08-19T05:16:26;18.00;99.90
16200;DHT22;8207;52.494;4.654;2022-08-19T05:18:53;18.00;99.90
16200;DHT22;8207;52.494;4.654;2022-08-19T05:21:42;18.10;99.90
16200;DHT22;8207;52.494;4.654;2022-08-19T05:24:27;18.10;99.90
16200;DHT22;8207;52.494;4.654;2022-08-19T05:26:56;18.20;99.90
16200;DHT22;8207;52.494;4.654;2022-08-19T05:29:25;18.20;99.90
16200;DHT22;8207;52.494;4.654;2022-08-19T05:31:54;18.30;99.90
16200;DHT22;8207;52.494;4.654;2022-08-19T05:34:23;18.30;99.90
16200;DHT22;8207;52.494;4.654;2022-08-19T05:36:54;18.30;99.90
16200;DHT22;8207;52.494;4.654;2022-08-19T05:39:23;18.40;99.90
16200;DHT22;8207;52.494;4.654;2022-08-19T05:41:53;18.40;99.90
16200;DHT22;8207;52.494;4.654;2022-08-19T05:44:23;18.50;99.90
16200;DHT22;8207;52.494;4.654;2022-08-19T05:46:50;18.50;99.90
16200;DHT22;8207;52.494;4.654;2022-08-19T05:49:20;18.50;99.90
16200;DHT22;8207;52.494;4.654;2022-08-19T05:51:47;18.60;99.90
16200;DHT22;8207;52.494;4.654;2022-08-19T05:54:16;18.60;99.90
16200;DHT22;8207;52.494;4.654;2022-08-19T05:56:43;18.60;99.90
16200;DHT22;8207;52.494;4.654;2022-08-19T05:59:14;18.70;99.90
16200;DHT22;8207;52.494;4.654;2022-08-19T06:01:44;18.70;99.90
16200;DHT22;8207;52.494;4.654;2022-08-19T06:04:11;18.70;99.90
16200;DHT22;8207;52.494;4.654;2022-08-19T06:06:39;18.80;99.90
16200;DHT22;8207;52.494;4.654;2022-08-19T06:09:07;18.80;99.90
16200;DHT22;8207;52.494;4.654;2022-08-19T06:11:38;18.90;99.90
16200;DHT22;8207;52.494;4.654;2022-08-19T06:14:08;19.00;99.90
16200;DHT22;8207;52.494;4.654;2022-08-19T06:16:36;19.00;99.90
16200;DHT22;8207;52.494;4.654;2022-08-19T06:19:06;19.20;99.90
16200;DHT22;8207;52.494;4.654;2022-08-19T06:21:35;19.20;99.90
16200;DHT22;8207;52.494;4.654;2022-08-19T06:24:04;19.30;99.90
16200;DHT22;8207;52.494;4.654;2022-08-19T06:26:34;19.30;99.90
16200;DHT22;8207;52.494;4.654;2022-08-19T06:29:03;19.30;99.90
16200;DHT22;8207;52.494;4.654;2022-08-19T06:31:32;19.40;99.90
16200;DHT22;8207;52.494;4.654;2022-08-19T06:34:00;19.40;99.90
16200;DHT22;8207;52.494;4.654;2022-08-19T06:36:30;19.50;99.90
16200;DHT22;8207;52.494;4.654;2022-08-19T06:39:00;19.60;99.90
16200;DHT22;8207;52.494;4.654;2022-08-19T06:41:28;19.70;99.90
16200;DHT22;8207;52.494;4.654;2022-08-19T06:43:56;19.80;99.90
16200;DHT22;8207;52.494;4.654;2022-08-19T06:46:26;19.90;99.90
16200;DHT22;8207;52.494;4.654;2022-08-19T06:48:53;20.00;99.90
16200;DHT22;8207;52.494;4.654;2022-08-19T06:51:21;20.10;99.90
16200;DHT22;8207;52.494;4.654;2022-08-19T06:53:51;20.10;99.90
16200;DHT22;8207;52.494;4.654;2022-08-19T06:56:20;20.20;99.90
16200;DHT22;8207;52.494;4.654;2022-08-19T06:58:48;20.30;99.90
16200;DHT22;8207;52.494;4.654;2022-08-19T07:01:18;20.50;99.90
16200;DHT22;8207;52.494;4.654;2022-08-19T07:03:46;20.60;99.90
16200;DHT22;8207;52.494;4.654;2022-08-19T07:06:16;20.80;99.90
16200;DHT22;8207;52.494;4.654;2022-08-19T07:08:46;20.90;99.90
16200;DHT22;8207;52.494;4.654;2022-08-19T07:11:16;21.10;99.90
16200;DHT22;8207;52.494;4.654;2022-08-19T07:13:44;21.20;99.90
16200;DHT22;8207;52.494;4.654;2022-08-19T07:16:16;21.20;99.90
16200;DHT22;8207;52.494;4.654;2022-08-19T07:18:46;21.20;99.90
16200;DHT22;8207;52.494;4.654;2022-08-19T07:21:15;21.20;99.90
16200;DHT22;8207;52.494;4.654;2022-08-19T07:23:42;21.20;99.90
16200;DHT22;8207;52.494;4.654;2022-08-19T07:26:13;21.20;99.90
16200;DHT22;8207;52.494;4.654;2022-08-19T07:28:40;21.20;99.90
16200;DHT22;8207;52.494;4.654;2022-08-19T07:31:10;21.20;99.90
16200;DHT22;8207;52.494;4.654;2022-08-19T07:33:37;21.20;99.90
16200;DHT22;8207;52.494;4.654;2022-08-19T07:36:07;21.30;99.90
16200;DHT22;8207;52.494;4.654;2022-08-19T07:38:35;21.30;99.90
16200;DHT22;8207;52.494;4.654;2022-08-19T07:41:02;21.40;99.90
16200;DHT22;8207;52.494;4.654;2022-08-19T07:43:29;21.50;99.90
16200;DHT22;8207;52.494;4.654;2022-08-19T07:45:57;21.60;99.90
16200;DHT22;8207;52.494;4.654;2022-08-19T07:48:25;21.70;99.90
16200;DHT22;8207;52.494;4.654;2022-08-19T07:50:53;21.80;99.90
16200;DHT22;8207;52.494;4.654;2022-08-19T07:53:21;21.90;99.90
16200;DHT22;8207;52.494;4.654;2022-08-19T07:55:48;22.00;99.90
16200;DHT22;8207;52.494;4.654;2022-08-19T07:58:17;22.10;99.90
16200;DHT22;8207;52.494;4.654;2022-08-19T08:00:45;22.10;99.90
16200;DHT22;8207;52.494;4.654;2022-08-19T08:03:14;22.00;99.90
16200;DHT22;8207;52.494;4.654;2022-08-19T08:05:42;22.10;99.90
16200;DHT22;8207;52.494;4.654;2022-08-19T08:08:39;22.10;99.90
16200;DHT22;8207;52.494;4.654;2022-08-19T08:11:23;22.10;99.90
16200;DHT22;8207;52.494;4.654;2022-08-19T08:13:50;22.00;99.90
16200;DHT22;8207;52.494;4.654;2022-08-19T08:16:17;22.00;99.90
16200;DHT22;8207;52.494;4.654;2022-08-19T08:18:44;22.00;99.90
16200;DHT22;8207;52.494;4.654;2022-08-19T08:21:11;22.00;99.90
16200;DHT22;8207;52.494;4.654;2022-08-19T08:23:40;22.20;99.90
16200;DHT22;8207;52.494;4.654;2022-08-19T08:26:08;22.50;99.90
16200;DHT22;8207;52.494;4.654;2022-08-19T08:28:35;22.60;99.90
16200;DHT22;8207;52.494;4.654;2022-08-19T08:31:03;22.70;99.90
16200;DHT22;8207;52.494;4.654;2022-08-19T08:33:30;22.70;99.90
16200;DHT22;8207;52.494;4.654;2022-08-19T08:35:57;22.70;99.90
16200;DHT22;8207;52.494;4.654;2022-08-19T08:38:24;22.80;99.90
16200;DHT22;8207;52.494;4.654;2022-08-19T08:40:57;23.00;99.90
16200;DHT22;8207;52.494;4.654;2022-08-19T08:43:34;23.20;99.90
16200;DHT22;8207;52.494;4.654;2022-08-19T08:46:05;23.20;99.90
16200;DHT22;8207;52.494;4.654;2022-08-19T08:48:37;23.20;99.90
16200;DHT22;8207;52.494;4.654;2022-08-19T08:51:08;23.20;99.90
16200;DHT22;8207;52.494;4.654;2022-08-19T08:53:36;23.20;99.90
16200;DHT22;8207;52.494;4.654;2022-08-19T08:56:06;23.20;99.90
16200;DHT22;8207;52.494;4.654;2022-08-19T08:58:44;23.30;99.90
16200;DHT22;8207;52.494;4.654;2022-08-19T09:01:13;23.40;99.90
16200;DHT22;8207;52.494;4.654;2022-08-19T09:03:41;23.40;99.90
16200;DHT22;8207;52.494;4.654;2022-08-19T09:06:14;23.40;99.90
16200;DHT22;8207;52.494;4.654;2022-08-19T09:08:49;23.40;99.90
16200;DHT22;8207;52.494;4.654;2022-08-19T09:11:35;23.50;99.90
16200;DHT22;8207;52.494;4.654;2022-08-19T09:14:10;23.60;99.90
16200;DHT22;8207;52.494;4.654;2022-08-19T09:16:41;23.60;99.90
16200;DHT22;8207;52.494;4.654;2022-08-19T09:19:08;23.70;99.90
16200;DHT22;8207;52.494;4.654;2022-08-19T09:21:36;23.60;99.90
16200;DHT22;8207;52.494;4.654;2022-08-19T09:24:05;23.50;99.90
16200;DHT22;8207;52.494;4.654;2022-08-19T09:26:33;23.50;99.90
16200;DHT22;8207;52.494;4.654;2022-08-19T09:29:01;23.40;99.90
16200;DHT22;8207;52.494;4.654;2022-08-19T09:31:31;23.50;99.90
16200;DHT22;8207;52.494;4.654;2022-08-19T09:33:58;23.50;99.90
16200;DHT22;8207;52.494;4.654;2022-08-19T09:36:27;23.70;99.90
16200;DHT22;8207;52.494;4.654;2022-08-19T09:38:58;23.90;99.90
16200;DHT22;8207;52.494;4.654;2022-08-19T09:41:26;24.00;99.90
16200;DHT22;8207;52.494;4.654;2022-08-19T09:43:58;24.10;99.90
16200;DHT22;8207;52.494;4.654;2022-08-19T09:46:26;24.10;99.90
16200;DHT22;8207;52.494;4.654;2022-08-19T09:48:54;24.30;99.90
16200;DHT22;8207;52.494;4.654;2022-08-19T09:51:25;24.50;99.90
16200;DHT22;8207;52.494;4.654;2022-08-19T09:53:54;24.80;99.90
16200;DHT22;8207;52.494;4.654;2022-08-19T09:56:22;25.20;99.90
16200;DHT22;8207;52.494;4.654;2022-08-19T09:58:49;25.60;99.90
16200;DHT22;8207;52.494;4.654;2022-08-19T10:01:19;25.70;99.90
16200;DHT22;8207;52.494;4.654;2022-08-19T10:03:48;25.70;99.90
16200;DHT22;8207;52.494;4.654;2022-08-19T10:06:16;25.70;95.70
16200;DHT22;8207;52.494;4.654;2022-08-19T10:08:44;25.70;99.90
16200;DHT22;8207;52.494;4.654;2022-08-19T10:11:11;25.70;99.90
16200;DHT22;8207;52.494;4.654;2022-08-19T10:13:39;25.40;99.90
16200;DHT22;8207;52.494;4.654;2022-08-19T10:16:08;25.20;99.90
16200;DHT22;8207;52.494;4.654;2022-08-19T10:18:37;25.00;99.90
16200;DHT22;8207;52.494;4.654;2022-08-19T10:21:11;24.90;99.90
16200;DHT22;8207;52.494;4.654;2022-08-19T10:23:39;24.70;99.90
16200;DHT22;8207;52.494;4.654;2022-08-19T10:26:10;24.60;99.90
16200;DHT22;8207;52.494;4.654;2022-08-19T10:28:37;24.50;99.90
16200;DHT22;8207;52.494;4.654;2022-08-19T10:31:05;24.50;99.90
16200;DHT22;8207;52.494;4.654;2022-08-19T10:33:33;24.40;99.90
16200;DHT22;8207;52.494;4.654;2022-08-19T10:36:03;24.40;99.90
16200;DHT22;8207;52.494;4.654;2022-08-19T10:38:30;24.30;99.90
16200;DHT22;8207;52.494;4.654;2022-08-19T10:40:57;24.40;99.90
16200;DHT22;8207;52.494;4.654;2022-08-19T10:43:24;24.50;99.90
16200;DHT22;8207;52.494;4.654;2022-08-19T10:45:52;24.40;99.90
16200;DHT22;8207;52.494;4.654;2022-08-19T10:48:21;24.50;99.90
16200;DHT22;8207;52.494;4.654;2022-08-19T10:50:48;24.50;99.90
16200;DHT22;8207;52.494;4.654;2022-08-19T10:53:34;24.50;99.90
16200;DHT22;8207;52.494;4.654;2022-08-19T10:56:01;24.50;99.90
16200;DHT22;8207;52.494;4.654;2022-08-19T10:58:46;24.50;99.90
16200;DHT22;8207;52.494;4.654;2022-08-19T11:01:14;24.50;99.90
16200;DHT22;8207;52.494;4.654;2022-08-19T11:03:40;24.50;99.90
16200;DHT22;8207;52.494;4.654;2022-08-19T11:06:08;24.50;99.90
16200;DHT22;8207;52.494;4.654;2022-08-19T11:08:37;24.50;99.90
16200;DHT22;8207;52.494;4.654;2022-08-19T11:11:05;24.60;99.90
16200;DHT22;8207;52.494;4.654;2022-08-19T11:13:34;24.70;99.90
16200;DHT22;8207;52.494;4.654;2022-08-19T11:16:05;24.80;99.90
16200;DHT22;8207;52.494;4.654;2022-08-19T11:18:34;24.90;99.90
16200;DHT22;8207;52.494;4.654;2022-08-19T11:21:10;24.80;99.90
16200;DHT22;8207;52.494;4.654;2022-08-19T11:23:41;24.80;99.90
16200;DHT22;8207;52.494;4.654;2022-08-19T11:26:09;24.90;99.90
16200;DHT22;8207;52.494;4.654;2022-08-19T11:28:36;25.00;99.90
16200;DHT22;8207;52.494;4.654;2022-08-19T11:31:04;25.00;99.90
16200;DHT22;8207;52.494;4.654;2022-08-19T11:33:31;25.20;99.90
16200;DHT22;8207;52.494;4.654;2022-08-19T11:35:58;25.20;99.90
16200;DHT22;8207;52.494;4.654;2022-08-19T11:38:26;25.30;99.90
16200;DHT22;8207;52.494;4.654;2022-08-19T11:40:59;25.40;99.90
16200;DHT22;8207;52.494;4.654;2022-08-19T11:43:27;25.50;99.90
16200;DHT22;8207;52.494;4.654;2022-08-19T11:45:55;25.50;99.90
16200;DHT22;8207;52.494;4.654;2022-08-19T11:48:23;25.40;99.90
16200;DHT22;8207;52.494;4.654;2022-08-19T11:50:51;25.40;99.90
16200;DHT22;8207;52.494;4.654;2022-08-19T11:53:21;25.50;99.90
16200;DHT22;8207;52.494;4.654;2022-08-19T11:55:48;25.50;99.90
16200;DHT22;8207;52.494;4.654;2022-08-19T11:58:17;25.50;99.90
16200;DHT22;8207;52.494;4.654;2022-08-19T12:00:44;25.70;99.90
16200;DHT22;8207;52.494;4.654;2022-08-19T12:03:11;26.00;99.90
16200;DHT22;8207;52.494;4.654;2022-08-19T12:05:40;26.10;99.90
16200;DHT22;8207;52.494;4.654;2022-08-19T12:08:08;26.30;99.90
16200;DHT22;8207;52.494;4.654;2022-08-19T12:10:35;26.40;99.90
16200;DHT22;8207;52.494;4.654;2022-08-19T12:13:03;26.50;99.90
16200;DHT22;8207;52.494;4.654;2022-08-19T12:15:35;26.70;99.90
16200;DHT22;8207;52.494;4.654;2022-08-19T12:18:03;26.80;99.90
16200;DHT22;8207;52.494;4.654;2022-08-19T12:20:34;27.00;99.90
16200;DHT22;8207;52.494;4.654;2022-08-19T12:23:01;27.10;92.00
16200;DHT22;8207;52.494;4.654;2022-08-19T12:25:28;27.20;99.90
16200;DHT22;8207;52.494;4.654;2022-08-19T12:27:56;27.30;99.90
16200;DHT22;8207;52.494;4.654;2022-08-19T12:30:23;27.10;99.90
16200;DHT22;8207;52.494;4.654;2022-08-19T12:32:51;27.00;98.90
16200;DHT22;8207;52.494;4.654;2022-08-19T12:35:19;26.80;97.00
16200;DHT22;8207;52.494;4.654;2022-08-19T12:37:47;26.60;99.90
16200;DHT22;8207;52.494;4.654;2022-08-19T12:40:15;26.40;99.90
16200;DHT22;8207;52.494;4.654;2022-08-19T12:42:43;26.30;99.90
16200;DHT22;8207;52.494;4.654;2022-08-19T12:45:11;26.20;99.90
16200;DHT22;8207;52.494;4.654;2022-08-19T12:47:38;26.10;99.90
16200;DHT22;8207;52.494;4.654;2022-08-19T12:50:07;26.00;99.90
16200;DHT22;8207;52.494;4.654;2022-08-19T12:52:35;26.00;99.90
16200;DHT22;8207;52.494;4.654;2022-08-19T12:55:04;25.90;99.90
16200;DHT22;8207;52.494;4.654;2022-08-19T12:57:32;25.80;99.90
16200;DHT22;8207;52.494;4.654;2022-08-19T13:00:04;25.70;99.90
16200;DHT22;8207;52.494;4.654;2022-08-19T13:02:33;25.70;99.90
16200;DHT22;8207;52.494;4.654;2022-08-19T13:05:00;25.70;99.90
16200;DHT22;8207;52.494;4.654;2022-08-19T13:07:28;25.70;99.90
16200;DHT22;8207;52.494;4.654;2022-08-19T13:09:56;25.50;99.90
16200;DHT22;8207;52.494;4.654;2022-08-19T13:12:23;25.50;99.90
16200;DHT22;8207;52.494;4.654;2022-08-19T13:14:52;25.30;99.90
16200;DHT22;8207;52.494;4.654;2022-08-19T13:17:19;25.30;99.90
16200;DHT22;8207;52.494;4.654;2022-08-19T13:19:46;25.20;99.90
16200;DHT22;8207;52.494;4.654;2022-08-19T13:22:13;25.30;99.90
16200;DHT22;8207;52.494;4.654;2022-08-19T13:24:41;25.30;99.90
16200;DHT22;8207;52.494;4.654;2022-08-19T13:27:08;25.10;99.90
16200;DHT22;8207;52.494;4.654;2022-08-19T13:29:35;25.10;99.90
16200;DHT22;8207;52.494;4.654;2022-08-19T13:32:20;25.00;99.90
16200;DHT22;8207;52.494;4.654;2022-08-19T13:35:04;25.00;99.90
16200;DHT22;8207;52.494;4.654;2022-08-19T13:37:31;25.00;99.90
16200;DHT22;8207;52.494;4.654;2022-08-19T13:40:14;24.90;99.90
16200;DHT22;8207;52.494;4.654;2022-08-19T13:42:42;24.80;99.90
16200;DHT22;8207;52.494;4.654;2022-08-19T13:45:12;24.80;99.90
16200;DHT22;8207;52.494;4.654;2022-08-19T13:47:39;24.80;99.90
16200;DHT22;8207;52.494;4.654;2022-08-19T13:50:10;24.80;99.90
16200;DHT22;8207;52.494;4.654;2022-08-19T13:52:37;24.80;99.90
16200;DHT22;8207;52.494;4.654;2022-08-19T13:55:05;24.80;99.90
16200;DHT22;8207;52.494;4.654;2022-08-19T13:57:34;24.70;99.90
16200;DHT22;8207;52.494;4.654;2022-08-19T14:00:09;24.70;99.90
16200;DHT22;8207;52.494;4.654;2022-08-19T14:02:36;24.70;99.90
16200;DHT22;8207;52.494;4.654;2022-08-19T14:05:06;24.60;99.90
16200;DHT22;8207;52.494;4.654;2022-08-19T14:07:33;24.50;99.90
16200;DHT22;8207;52.494;4.654;2022-08-19T14:10:00;24.40;99.90
16200;DHT22;8207;52.494;4.654;2022-08-19T14:12:27;24.40;99.90
16200;DHT22;8207;52.494;4.654;2022-08-19T14:14:55;24.40;99.90
16200;DHT22;8207;52.494;4.654;2022-08-19T14:17:22;24.50;99.90
16200;DHT22;8207;52.494;4.654;2022-08-19T14:19:50;24.40;99.90
16200;DHT22;8207;52.494;4.654;2022-08-19T14:22:22;24.40;99.90
16200;DHT22;8207;52.494;4.654;2022-08-19T14:24:49;24.40;99.90
16200;DHT22;8207;52.494;4.654;2022-08-19T14:27:15;24.30;99.90
16200;DHT22;8207;52.494;4.654;2022-08-19T14:29:43;24.20;99.90
16200;DHT22;8207;52.494;4.654;2022-08-19T14:32:11;24.10;99.90
16200;DHT22;8207;52.494;4.654;2022-08-19T14:34:38;24.00;99.90
16200;DHT22;8207;52.494;4.654;2022-08-19T14:37:05;24.00;99.90
16200;DHT22;8207;52.494;4.654;2022-08-19T14:39:33;24.00;99.90
16200;DHT22;8207;52.494;4.654;2022-08-19T14:42:00;24.00;99.90
16200;DHT22;8207;52.494;4.654;2022-08-19T14:44:27;24.00;99.90
16200;DHT22;8207;52.494;4.654;2022-08-19T14:46:54;24.00;99.90
16200;DHT22;8207;52.494;4.654;2022-08-19T14:49:22;24.00;99.90
16200;DHT22;8207;52.494;4.654;2022-08-19T14:51:49;24.10;99.90
16200;DHT22;8207;52.494;4.654;2022-08-19T14:54:16;24.10;99.90
16200;DHT22;8207;52.494;4.654;2022-08-19T14:56:43;24.00;99.90
16200;DHT22;8207;52.494;4.654;2022-08-19T14:59:10;24.10;99.90
16200;DHT22;8207;52.494;4.654;2022-08-19T15:01:38;24.10;99.90
16200;DHT22;8207;52.494;4.654;2022-08-19T15:04:04;24.20;99.90
16200;DHT22;8207;52.494;4.654;2022-08-19T15:06:33;24.30;99.90
16200;DHT22;8207;52.494;4.654;2022-08-19T15:09:00;24.40;99.90
16200;DHT22;8207;52.494;4.654;2022-08-19T15:11:28;24.40;99.90
16200;DHT22;8207;52.494;4.654;2022-08-19T15:13:58;24.50;99.90
16200;DHT22;8207;52.494;4.654;2022-08-19T15:16:27;24.40;99.90
16200;DHT22;8207;52.494;4.654;2022-08-19T15:18:56;24.40;99.90
16200;DHT22;8207;52.494;4.654;2022-08-19T15:21:25;24.40;99.90
16200;DHT22;8207;52.494;4.654;2022-08-19T15:23:54;24.40;99.90
16200;DHT22;8207;52.494;4.654;2022-08-19T15:26:21;24.40;99.90
16200;DHT22;8207;52.494;4.654;2022-08-19T15:28:48;24.40;99.90
16200;DHT22;8207;52.494;4.654;2022-08-19T15:31:17;24.40;99.90
16200;DHT22;8207;52.494;4.654;2022-08-19T15:33:45;24.40;99.90
16200;DHT22;8207;52.494;4.654;2022-08-19T15:36:13;24.20;99.90
16200;DHT22;8207;52.494;4.654;2022-08-19T15:38:41;24.20;99.90
16200;DHT22;8207;52.494;4.654;2022-08-19T15:41:16;24.10;99.90
16200;DHT22;8207;52.494;4.654;2022-08-19T15:43:50;24.00;99.90
16200;DHT22;8207;52.494;4.654;2022-08-19T15:46:18;24.10;99.90
16200;DHT22;8207;52.494;4.654;2022-08-19T15:48:46;24.00;99.90
16200;DHT22;8207;52.494;4.654;2022-08-19T15:51:13;24.00;99.90
16200;DHT22;8207;52.494;4.654;2022-08-19T15:53:41;24.00;99.90
16200;DHT22;8207;52.494;4.654;2022-08-19T15:56:09;23.90;99.90